SNT weather

Las Cruces Airport
Sabana De Torres, Santander Department, Colombia

Public forecast

Using degrees Celsius for public forecast. Weather courtesy of forecast.io.

METAR (pilot weather report)

Report is more than 2 hours old.

Closest report is Palonegro Airport, 24.5 nm (45.4 km) SE. Retrieved 2019/03/23 06:00 UTC (5 hours ago):

SKBG 230600Z 34003KT 3000 1200N DZ BCFG BKN004 SCT070 19/19 A3003 RETSRA

TAF (pilot weather forecast)

Forecast is more than 12 hours old.

Closest forecast is Palonegro Airport, 24.5 nm (45.4 km) SE. Retrieved 2019/03/16 00:00 UTC (7 days ago):

TAF SKBG 152300Z 1600/1624 30005KT 9999 SCT017 SCT070 TEMPO 1600/1602 -RA BECMG 1602/2604 VRB02KT TEMPO 1603/1606 7000 VCSH SCT015TCU TEMPO 1609/1613 8000 SCT015 BKN070 TEMPO 1619/1623 33010KT 8000 TX28/1619Z TN19/1611Z